Terminal Aerodrome Forecast
Issued by NWS

Home | Current Version | Previous Version | Text Only | Print | Product List | Glossary On
Versions: 1 2 3 4 5 6 7 8 9 10 11 12 13 14 15 16 17 18 19 20 21 22 23 24 25 26 27 28 29 30 31 32 33 34 35 36 37 38 39 40 41 42 43 44 45 46 47
000
FTUS44 KHGX 282333
TAFCXO
TAF
KCXO 282333Z 2900/2924 34004KT P6SM OVC007
     FM290300 00000KT 6SM BR BKN007
     FM290900 00000KT 2SM BR OVC003
      TEMPO 2910/2913 1/4SM FG VV001
     FM291500 VRB02KT 6SM BR OVC015
     FM292000 VRB02KT P6SM BKN020=

USA.gov is the U.S. government's official web portal to all federal, state and local government web resources and services.